Latest Coastal Weather Observations for Bairnsdale

IDV60701

Issued at 10:41 am EDT Sunday 7 February 2016 (issued every 10 minutes, with the page automatically refreshed every 10 minutes)

About coastal observations | Map of coastal stations | Coastal observations for VIC | Marine services | Other Formats
Station Details ID: 085279 Name: BAIRNSDALE AIRPORT Lat: -37.88 Lon: 147.57 Height: 49.4 m
Data from the previous 72 hours. | See also: Recent months at Bairnsdale
Date/Time
EDT
Temp

°C
Wind Pressure Rain
since 9am
mm
Weather Cloud Vis
km
Sea
Height
m
Swell
Dir
 
Speed
knots
Gust
knots
hPa Trend Height
m
Period
s
Dir
07/10:30am 24.4 SSW 4 6 1016.8 - 0.0 - - 10 - - - -
07/10:00am 23.3 SW 4 6 1016.7 - 0.0 - - 10 - - - -
07/09:30am 21.9 S 1 3 1016.6 - 0.0 - - 10 - - - -
07/09:00am 20.1 CALM 0 3 1016.5 - 0.0 - - 10 - - - -
07/08:30am 18.1 WNW 3 4 1016.5 - 0.0 - - 10 - - - -
07/08:00am 16.4 NW 3 4 1016.3 - 0.0 - - 10 - - - -
07/07:30am 15.3 NW 4 5 1016.1 - 0.0 - - 10 - - - -
07/07:00am 13.8 NW 4 5 1016.0 - 0.0 - - 10 - - - -
07/06:30am 13.7 WNW 3 6 1015.8 - 0.0 - - 10 - - - -
07/06:29am 13.7 WNW 3 5 1015.8 - 0.0 - - 10 - - - -
07/06:00am 13.5 NW 3 4 1015.5 - 0.0 - - 2 - - - -
07/05:53am 13.5 NNW 3 5 1015.4 - 0.0 - - 5 - - - -
07/05:30am 13.5 NW 5 6 1015.3 - 0.0 - - 10 - - - -
07/05:00am 13.4 NW 5 5 1015.2 - 0.0 - - 8 - - - -
07/04:55am 13.7 NNW 5 5 1015.0 - 0.0 - - 10 - - - -
07/04:32am 13.5 NNW 4 5 1015.0 - 0.0 - - 4 - - - -
07/04:30am 13.9 NNW 4 5 1015.0 - 0.0 - - 8 - - - -
07/04:00am 14.0 NNW 5 5 1015.2 - 0.0 - - 10 - - - -
07/03:30am 14.9 NW 3 4 1015.2 - 0.0 - - 9 - - - -
07/03:00am 15.1 WNW 3 4 1015.3 - 0.0 - - 10 - - - -
07/02:43am 14.9 W 4 4 1015.4 - 0.0 - - 10 - - - -
07/02:30am 14.5 W 4 4 1015.5 - 0.0 - - 3 - - - -
07/02:06am 14.4 WNW 3 4 1015.7 - 0.0 - - 5 - - - -
07/02:00am 14.5 WNW 3 3 1015.8 - 0.0 - - 10 - - - -
07/01:59am 14.5 W 3 3 1015.8 - 0.0 - - 10 - - - -
07/01:39am 15.1 W 3 4 1016.0 - 0.0 - - 5 - - - -
07/01:30am 15.5 W 3 4 1016.0 - 0.0 - - 10 - - - -
07/01:00am 15.1 W 4 5 1016.2 - 0.0 - - 10 - - - -
07/12:30am 14.8 WNW 5 6 1016.3 - 0.0 - - 10 - - - -
07/12:00am 14.6 W 4 5 1016.5 - 0.0 - - 8 - - - -
 
Date/Time
EDT
Temp

°C
Wind Pressure Rain
since 9am
mm
Weather Cloud Vis
km
Sea
Height
m
Swell
Dir
 
Speed
knots
Gust
knots
hPa Trend Height
m
Period
s
Dir
06/11:30pm 15.2 WNW 3 4 1016.7 - 0.0 - - 10 - - - -
06/11:00pm 15.6 S 3 4 1016.9 - 0.0 - - 10 - - - -
06/10:30pm 17.8 SE 4 5 1016.9 - 0.0 - - 10 - - - -
06/10:00pm 18.6 SE 4 6 1017.0 - 0.0 - - 10 - - - -
06/09:30pm 18.8 ESE 5 7 1016.8 - 0.0 - - 10 - - - -
06/09:00pm 19.3 ESE 5 8 1016.6 - 0.0 - - 10 - - - -
06/08:30pm 19.6 E 8 13 1016.3 - 0.0 - - 10 - - - -
06/08:00pm 20.7 E 9 12 1016.2 - 0.0 - - 10 - - - -
06/07:30pm 21.6 ESE 10 13 1016.1 - 0.0 - - 10 - - - -
06/07:00pm 22.8 ESE 9 13 1015.9 - 0.0 - - 10 - - - -
06/06:30pm 23.3 ESE 10 13 1015.7 - 0.0 - - 10 - - - -
06/06:00pm 23.8 E 12 15 1015.6 - 0.0 - - 10 - - - -
06/05:30pm 23.8 E 14 17 1015.6 - 0.0 - - 10 - - - -
06/05:00pm 24.8 E 12 16 1015.7 - 0.0 - - 10 - - - -
06/04:30pm 24.3 ESE 13 18 1015.9 - 0.0 - - 10 - - - -
06/04:00pm 24.5 ESE 13 19 1016.2 - 0.0 - - 10 - - - -
06/03:30pm 24.7 ESE 13 18 1016.3 - 0.0 - - 10 - - - -
06/03:00pm 24.4 ESE 14 19 1016.7 - 0.0 - - 10 - - - -
06/02:30pm 24.0 ESE 16 19 1017.0 - 0.0 - - 10 - - - -
06/02:00pm 24.6 ESE 14 18 1017.1 - 0.0 - - 10 - - - -
06/01:30pm 23.9 ESE 14 18 1017.3 - 0.0 - - 10 - - - -
06/01:00pm 24.7 ESE 11 15 1017.4 - 0.0 - - 10 - - - -
06/12:30pm 23.7 ESE 11 16 1017.6 - 0.0 - - 10 - - - -
06/12:00pm 24.6 E 7 12 1017.8 - 0.0 - - 10 - - - -
06/11:30am 23.7 E 9 13 1018.1 - 0.0 - - 10 - - - -
06/11:00am 23.2 E 10 14 1018.1 - 0.0 - - 10 - - - -
06/10:30am 22.5 E 11 14 1018.3 - 0.0 - - 10 - - - -
06/10:00am 20.8 ENE 8 10 1018.6 - 0.0 - - 10 - - - -
06/09:30am 19.6 E 7 10 1019.0 - 0.0 - - 10 - - - -
06/09:00am 18.0 NE 4 6 1019.1 - 0.0 - - 10 - - - -
06/08:30am 16.4 NE 7 9 1019.2 - 0.0 - - 10 - - - -
06/08:00am 15.5 NE 5 6 1019.1 - 0.0 - - 10 - - - -
06/07:30am 14.5 E 5 6 1019.0 - 0.0 - - 10 - - - -
06/07:00am 12.9 ENE 5 6 1018.7 - 0.0 - - 10 - - - -
06/06:30am 12.3 NE 5 6 1018.6 - 0.0 - - 10 - - - -
06/06:00am 12.3 NE 4 5 1018.4 - 0.0 - - 10 - - - -
06/05:30am 12.9 N 4 5 1018.5 - 0.0 - - 10 - - - -
06/05:00am 11.8 NNW 4 5 1018.5 - 0.0 - - 10 - - - -
06/04:30am 12.9 CALM 0 0 1018.6 - 0.0 - - 10 - - - -
06/04:00am 13.6 ENE 3 4 1018.6 - 0.0 - - 10 - - - -
06/03:30am 14.2 NE 4 5 1018.8 - 0.0 - - 10 - - - -
06/03:00am 14.7 ENE 5 6 1019.0 - 0.0 - - 10 - - - -
06/02:30am 15.1 ENE 5 7 1019.4 - 0.0 - - 10 - - - -
06/02:00am 15.4 NE 5 6 1019.7 - 0.0 - - 10 - - - -
06/01:30am 16.0 ENE 6 10 1020.2 - 0.0 - - 10 - - - -
06/01:00am 16.4 ENE 6 8 1020.4 - 0.0 - - 10 - - - -
06/12:30am 15.9 ENE 5 6 1020.6 - 0.0 - - 10 - - - -
06/12:00am 15.8 NE 6 7 1020.7 - 0.0 - - 10 - - - -
 
Date/Time
EDT
Temp

°C
Wind Pressure Rain
since 9am
mm
Weather Cloud Vis
km
Sea
Height
m
Swell
Dir
 
Speed
knots
Gust
knots
hPa Trend Height
m
Period
s
Dir
05/11:30pm 16.7 ENE 6 8 1020.8 - 0.0 - - 10 - - - -
05/11:00pm 17.6 ENE 8 10 1021.0 - 0.0 - - 10 - - - -
05/10:30pm 18.5 E 14 19 1021.1 - 0.0 - - 10 - - - -
05/10:00pm 18.6 E 14 18 1021.2 - 0.0 - - 10 - - - -
05/09:30pm 18.4 E 10 14 1021.0 - 0.0 - - 10 - - - -
05/09:00pm 18.5 E 12 17 1020.7 - 0.0 - - 10 - - - -
05/08:30pm 18.7 E 13 20 1020.5 - 0.0 - - 10 - - - -
05/08:00pm 19.3 E 16 22 1020.1 - 0.0 - - 10 - - - -
05/07:30pm 20.0 E 16 20 1019.8 - 0.0 - - 10 - - - -
05/07:00pm 20.5 E 17 23 1019.6 - 0.0 - - 10 - - - -
05/06:30pm 21.1 E 17 22 1019.5 - 0.0 - - 10 - - - -
05/06:00pm 21.3 E 17 23 1019.5 - 0.0 - - 10 - - - -
05/05:30pm 22.2 E 16 22 1019.8 - 0.0 - Partly cloudy 10 - - - -
05/05:00pm 21.8 E 17 21 1019.9 - 0.0 - - 10 - - - -
05/04:30pm 22.7 E 17 21 1020.1 - 0.0 - Partly cloudy 10 - - - -
05/04:00pm 22.5 E 15 21 1020.3 - 0.0 - Partly cloudy 10 - - - -
05/03:30pm 22.0 E 15 20 1020.5 - 0.0 - Partly cloudy 10 - - - -
05/03:00pm 22.4 ESE 15 21 1020.7 - 0.0 - Cloudy 10 - - - -
05/02:30pm 22.9 ESE 15 20 1020.9 - 0.0 - Partly cloudy 10 - - - -
05/02:00pm 22.4 E 14 20 1021.1 - 0.0 - Partly cloudy 10 - - - -
05/01:30pm 21.8 ESE 14 19 1021.3 - 0.0 - Partly cloudy 10 - - - -
05/01:00pm 22.6 ESE 13 18 1021.6 - 0.0 - Partly cloudy 10 - - - -
05/12:30pm 21.8 E 12 17 1021.9 - 0.0 - Cloudy 10 - - - -
05/12:00pm 21.4 E 9 13 1022.2 - 0.0 - Mostly cloudy 10 - - - -
05/11:30am 21.6 ENE 9 13 1022.5 - 0.0 - Partly cloudy 10 - - - -
05/11:00am 20.1 ENE 9 14 1022.6 - 0.0 - Cloudy 10 - - - -
05/10:30am 19.5 E 13 17 1022.7 - 0.0 - Partly cloudy 10 - - - -
05/10:00am 20.1 E 8 11 1022.6 - 0.0 - Partly cloudy 10 - - - -
05/09:30am 19.5 NE 4 5 1022.4 - 0.0 - Cloudy 10 - - - -
05/09:00am 18.4 NE 4 6 1022.3 - 0.2 - Cloudy 10 - - - -
05/08:30am 18.0 NNE 5 7 1021.9 - 0.2 - Cloudy 10 - - - -
05/08:00am 17.2 NNE 2 3 1021.8 - 0.2 - Cloudy 10 - - - -
05/07:30am 16.6 NE 3 5 1021.6 - 0.2 - Cloudy 10 - - - -
05/07:00am 16.5 NE 4 4 1021.2 - 0.2 - Cloudy 10 - - - -
05/06:30am 16.5 ENE 3 4 1020.9 - 0.2 - Cloudy 10 - - - -
05/06:00am 16.4 ENE 2 5 1020.7 - 0.2 - Cloudy 10 - - - -
05/05:30am 16.3 ENE 3 3 1020.3 - 0.2 - Cloudy 10 - - - -
05/05:00am 16.2 ESE 3 4 1020.2 - 0.2 - Cloudy 10 - - - -
05/04:30am 16.1 SE 3 4 1019.9 - 0.2 - Cloudy 10 - - - -
05/04:00am 16.0 ENE 4 5 1019.7 - 0.2 - Cloudy 10 - - - -
05/03:30am 15.7 ENE 3 5 1019.8 - 0.2 - Partly cloudy 10 - - - -
05/03:00am 15.3 NE 4 4 1019.8 - 0.2 - Mostly cloudy 10 - - - -
05/02:30am 15.5 NE 4 5 1020.0 - 0.2 - Cloudy 10 - - - -
05/02:00am 15.7 NE 4 5 1020.1 - 0.2 - Cloudy 10 - - - -
05/01:30am 15.5 ENE 4 5 1020.3 - 0.2 - Cloudy 10 - - - -
05/01:00am 15.2 ENE 6 7 1020.3 - 0.2 - Partly cloudy 10 - - - -
05/12:30am 15.2 E 5 6 1020.4 - 0.2 - - 10 - - - -
05/12:00am 15.4 ENE 5 6 1020.5 - 0.2 - - 10 - - - -
 
Date/Time
EDT
Temp

°C
Wind Pressure Rain
since 9am
mm
Weather Cloud Vis
km
Sea
Height
m
Swell
Dir
 
Speed
knots
Gust
knots
hPa Trend Height
m
Period
s
Dir
04/11:30pm 16.1 ENE 7 8 1020.5 - 0.2 - - 10 - - - -
04/11:00pm 16.4 ENE 8 10 1020.4 - 0.2 - - 10 - - - -
04/10:30pm 16.3 ENE 7 8 1020.6 - 0.2 - - 10 - - - -
04/10:00pm 16.8 NE 6 9 1020.5 - 0.2 - - 10 - - - -
04/09:30pm 18.1 ENE 11 15 1020.1 - 0.2 - - 10 - - - -
04/09:00pm 18.1 E 9 12 1019.9 - 0.2 - - 10 - - - -
04/08:30pm 18.3 E 10 13 1019.7 - 0.2 - - 10 - - - -
04/08:00pm 19.0 E 11 15 1019.3 - 0.2 - - 10 - - - -
04/07:30pm 19.8 E 12 16 1018.8 - 0.2 - - 10 - - - -
04/07:00pm 20.5 E 13 17 1018.5 - 0.2 - - 10 - - - -
04/06:30pm 21.2 ESE 10 13 1018.0 - 0.2 - - 10 - - - -
04/06:00pm 21.7 ESE 10 15 1018.0 - 0.2 - - 10 - - - -
04/05:30pm 22.4 ESE 10 13 1018.0 - 0.2 - - 10 - - - -
04/05:00pm 22.5 ESE 11 15 1018.0 - 0.2 - - 10 - - - -
04/04:30pm 22.8 SE 9 14 1018.1 - 0.2 - Partly cloudy 10 - - - -
04/04:00pm 22.0 SE 10 13 1018.2 - 0.2 - Partly cloudy 10 - - - -
04/03:30pm 23.1 ESE 7 11 1018.2 - 0.2 - Partly cloudy 10 - - - -
04/03:00pm 21.7 SE 6 11 1018.4 - 0.2 - Mostly clear 10 - - - -
04/02:30pm 22.1 ESE 7 11 1018.5 - 0.2 - Partly cloudy 10 - - - -
04/02:00pm 21.4 SE 4 6 1018.7 - 0.2 - Cloudy 10 - - - -
04/01:30pm 21.4 SSW 3 5 1018.7 - 0.2 - Partly cloudy 10 - - - -
04/01:00pm 21.4 SW 6 9 1018.7 - 0.2 - Partly cloudy 10 - - - -
04/12:30pm 20.7 WSW 7 11 1018.8 - 0.2 - Cloudy 10 - - - -
04/12:00pm 20.9 WNW 4 7 1018.7 - 0.2 Recent precip. Mostly cloudy 10 - - - -
04/11:30am 20.3 NW 6 9 1018.7 - 0.0 - Partly cloudy 10 - - - -
04/11:00am 19.2 WNW 7 10 1018.8 - 0.0 - Partly cloudy 10 - - - -

Other Formats:

Comma delimited format used in spreadsheet applications
http://www.bom.gov.au/fwo/IDV60701/IDV60701.94912.axf

JavaScript Object Notation format (JSON) in row-major order
http://www.bom.gov.au/fwo/IDV60701/IDV60701.94912.json